Main page
METAR-TAF:

METAR-TAF

Airports :

Djibouti, Djibouti

Djibouti–Ambouli International Airport

latitude: 11-33N, longitude: 043-10E, elevation: 49 m

METAR: missing

Time: 06:14 (03:14 UTC)

Forecast

The report was made 11 hours and 14 minutes ago, at 16:00 UTC
Forecast valid from 17 at 18 UTC to 18 at 18 UTC
Wind 3 kt from variable directions
Visibility 10 km or more
Few clouds at a height of 2000 ft
Becoming
from 18 at 00 UTC to 18 at 06 UTC
Wind kt from the North
Visibility 10 km or more
no clouds below 1500 m and no cumulonimbus
Becoming
from 18 at 06 UTC to 18 at 15 UTC
Wind 10 kt from the East
Few clouds at a height of 2300 ft

TAF: HDAM 171600Z 1718/1818 VRB03KT 9999 FEW020 BECMG 1800/1806 00000KT CAVOK BECMG 1806/1815 08010KT FEW023

Weather observations and forecasts of more than 4000 airports (METAR and TAF reports).

The available stations are represented by yellow and red dots on the map.

Hover mouse over dot to see the name of the station.

Then click to see weather observations and forecasts.

To change the map : click on the green buttons with a black cross to zoom in, on the green button with a dash to zoom out, or on the green arrows for adjacent maps.


METAR-TAF: